Atlantic - Newfoundland: Past 24 Hour Conditions

 

Natashquan Airport

04:00 PM EST 26 November 2014
This table is a summary of hourly weather conditions for the past 24 hours.
Date / Time
(EST)
Wind(knots) Conditions Visibility(km) Pressure(kPa) Air tempC) Relative humidity(%) Dew pointC) Wind Chill
26 November 2014
16:00 WNW 6 Partly Cloudy 16 102.1 -2 57 -9 -5
15:00 WNW 8 Sunny 16 102.0 -1 55 -9 -5
14:00 W 9 Sunny 16 101.9 -1 54 -9 -6
13:00 WNW 11 Sunny 16 101.7 -1 53 -9 -6
12:00 WNW 13 Sunny 16 101.7 -1 52 -9 -6
11:00 NW 15 gust 20 Sunny 16 101.6 0 50 -9 -6
10:00 NW 14 gust 21 Sunny 16 101.5 1 50 -9 *
9:00 WNW 16 Sunny 16 101.4 1 58 -6 *
8:00 WNW 10 Sunny 16 101.2 1 71 -4 *
7:00 W 19 gust 26 Mostly Cloudy 16 100.9 2 67 -3 *
6:00 W 15 gust 23 Partly Cloudy 16 100.8 3 75 -2 *
5:00 W 18 gust 23 Mostly Cloudy 16 100.7 3 77 -1 *
4:00 W 18 gust 27 Clear 16 100.6 3 76 -1 *
3:00 W 19 gust 27 Mostly Cloudy 16 100.5 4 80 1 *
2:00 W 20 gust 27 Clear 16 100.4 4 79 1 *
1:00 WSW 18 gust 25 Mainly Clear 16 100.3 4 81 1 *
0:00 W 20 gust 26 Cloudy 16 100.2 4 80 1 *
25 November 2014
23:00 W 23 gust 31 Mostly Cloudy 16 100.1 5 77 1 *
22:00 WSW 21 gust 29 Clear 16 100.0 4 79 1 *
21:00 WSW 14 gust 26 Partly Cloudy 16 100.0 4 81 1 *
20:00 W 18 gust 27 Clear 16 99.9 5 78 1 *
19:00 W 21 gust 30 Clear 16 99.9 5 75 1 *
18:00 WSW 22 gust 34 Clear 16 99.8 6 73 1 *
17:00 WSW 21 gust 30 Clear 16 99.7 6 73 1 *
16:00 WSW 21 gust 30 Clear 16 99.7 6 72 1 *
 
Map of Atlantic - Newfoundland marine weather areas Southwestern Grand Banks - 44138 Banquereau - 44139 Tail of the Bank - 44140 Nickerson Bank - 44251 Northeast Burgeo Bank - 44255 Blanc-Sablon Airport Cap Whittle Chevery Natashquan Airport Heath Point Miscou Island Grand Étang Ingonish Beach North Mountain St.Paul Island J.A. Douglas McCurdy Sydney Airport Charlottetown Airport East Point North Cape Argentia Bonavista Burgeo Cape Race Corner Brook Daniel's Harbour Englee Ferolle Point La Scie Port aux Basques Rocky Harbour Sagona Island St. Anthony Airport St. John's Int'l Airport St. Lawrence Stephenville Airport Twillingate Winterland Wreckhouse Cartwright Airport Mary's Harbour Grates Cove Pool's Island Marticot Island Long Pond Îles de la Madeleine Airport
Legend: buoyBuoy land stationLand Station